Time;durP1;ratioP1;P1;durP2;ratioP2;P2;SDS_P1;SDS_P2;PMS_P1;PMS_P2;Temp;Humidity;BMP_temperature;BMP_pressure;BME280_temperature;BME280_humidity;BME280_pressure;Samples;Min_cycle;Max_cycle;Signal;HPM_P1;HPM_P2
2021/03/06 00:03:29;;;;;;;6.90;2.30;;;2.30;73.70;;;;;;6274044;22;20008;-85
2021/03/06 00:06:04;;;;;;;6.72;2.72;;;2.20;73.90;;;;;;6273441;22;20035;-86
2021/03/06 00:08:33;;;;;;;5.53;1.95;;;2.20;74.00;;;;;;6272578;22;20004;-86
2021/03/06 00:11:11;;;;;;;5.47;2.00;;;2.20;74.20;;;;;;6274751;22;20375;-87
2021/03/06 00:13:58;;;;;;;4.78;2.17;;;2.10;74.40;;;;;;6250116;22;20487;-86
2021/03/06 00:16:48;;;;;;;8.35;2.55;;;2.10;74.50;;;;;;6252208;22;20334;-86
2021/03/06 00:22:15;;;;;;;5.20;2.13;;;2.00;74.70;;;;;;6262706;22;20039;-86
2021/03/06 00:24:53;;;;;;;8.73;3.10;;;1.90;74.90;;;;;;6273515;22;20009;-85
2021/03/06 00:27:26;;;;;;;4.93;2.45;;;1.90;75.00;;;;;;6273051;22;20010;-86
2021/03/06 00:29:54;;;;;;;4.68;2.25;;;1.90;75.20;;;;;;6275791;22;20082;-86
2021/03/06 00:32:27;;;;;;;7.50;2.30;;;1.90;75.40;;;;;;6274968;22;20003;-86
2021/03/06 00:37:59;;;;;;;5.72;2.40;;;1.80;75.40;;;;;;6254690;22;20004;-86
2021/03/06 00:40:27;;;;;;;7.68;2.53;;;1.70;75.60;;;;;;6276910;22;19996;-86
2021/03/06 00:43:08;;;;;;;4.72;2.30;;;1.80;75.90;;;;;;6249833;22;20102;-86
2021/03/06 00:45:47;;;;;;;;;;;;;;;;;;;;;
2021/03/06 00:48:28;;;;;;;7.35;2.88;;;1.70;76.00;;;;;;6277245;22;20071;-85
2021/03/06 00:51:07;;;;;;;5.50;2.28;;;1.70;76.00;;;;;;6275344;22;20004;-86
2021/03/06 00:53:49;;;;;;;5.88;2.40;;;1.60;76.00;;;;;;6275483;22;20388;-86
2021/03/06 00:56:30;;;;;;;;;;;;;;;;;;;;;
2021/03/06 01:01:52;;;;;;;5.18;2.53;;;1.50;76.30;;;;;;6265997;22;20018;-86
2021/03/06 01:04:54;;;;;;;6.05;2.58;;;1.40;76.40;;;;;;6226038;22;20018;-86
2021/03/06 01:07:35;;;;;;;7.97;2.33;;;1.40;76.60;;;;;;6241485;22;20103;-86
2021/03/06 01:10:10;;;;;;;5.55;2.00;;;1.40;76.70;;;;;;6251261;22;20007;-86
2021/03/06 01:12:38;;;;;;;6.43;2.05;;;1.40;76.70;;;;;;6276434;22;20249;-86
2021/03/06 01:15:07;;;;;;;5.60;2.25;;;1.30;76.80;;;;;;6275181;22;20023;-86
2021/03/06 01:18:13;;;;;;;5.45;2.05;;;1.30;76.80;;;;;;6249196;22;20057;-86
2021/03/06 01:20:42;;;;;;;6.55;2.30;;;1.30;76.80;;;;;;6275468;22;20003;-86
2021/03/06 01:23:36;;;;;;;4.18;1.98;;;1.30;76.90;;;;;;6249274;22;20413;-85
2021/03/06 01:26:05;;;;;;;8.75;2.05;;;1.20;77.00;;;;;;6276904;22;19996;-85
2021/03/06 01:29:19;;;;;;;8.40;2.10;;;1.20;77.10;;;;;;6273641;22;20409;-85
2021/03/06 01:31:50;;;;;;;3.83;1.58;;;1.20;77.30;;;;;;6275191;22;20069;-86
2021/03/06 01:34:21;;;;;;;4.65;1.98;;;1.20;77.40;;;;;;6275741;22;20031;-86
2021/03/06 01:36:57;;;;;;;;;;;1.20;77.50;;;;;;6276115;22;20004;-86
2021/03/06 01:39:30;;;;;;;6.72;2.30;;;1.20;77.60;;;;;;6277021;22;20272;-86
2021/03/06 01:41:59;;;;;;;4.85;2.00;;;1.10;77.60;;;;;;6250347;22;20015;-85
2021/03/06 01:44:36;;;;;;;4.22;1.90;;;1.10;77.60;;;;;;6275002;22;20006;-86
2021/03/06 01:47:16;;;;;;;7.43;2.75;;;1.10;77.70;;;;;;6275380;22;20000;-86
2021/03/06 01:50:10;;;;;;;6.97;1.90;;;1.00;77.80;;;;;;6249393;22;20101;-86
2021/03/06 01:52:59;;;;;;;4.22;2.00;;;1.00;77.90;;;;;;6274001;22;20007;-86
2021/03/06 01:55:26;;;;;;;6.85;2.00;;;1.00;78.10;;;;;;6273590;22;20011;-86
2021/03/06 01:58:04;;;;;;;6.82;2.00;;;0.90;78.20;;;;;;6275587;22;20333;-86
2021/03/06 02:00:46;;;;;;;5.10;2.03;;;0.90;78.50;;;;;;6274788;22;20000;-85
2021/03/06 02:03:17;;;;;;;5.37;2.10;;;0.90;78.60;;;;;;6275152;22;20014;-86
2021/03/06 02:06:03;;;;;;;5.97;1.98;;;0.90;78.70;;;;;;6274383;22;20492;-86
2021/03/06 02:08:40;;;;;;;5.00;2.00;;;0.90;78.80;;;;;;6274477;22;20004;-86
2021/03/06 02:11:09;;;;;;;4.57;2.10;;;0.80;78.80;;;;;;6248971;22;20046;-86
2021/03/06 02:14:16;;;;;;;7.53;2.10;;;0.80;78.80;;;;;;6274204;22;20023;-86
2021/03/06 02:17:00;;;;;;;4.50;1.70;;;0.80;78.80;;;;;;6216845;22;20064;-86
2021/03/06 02:20:10;;;;;;;4.22;1.77;;;0.70;78.80;;;;;;6274750;22;20011;-86
2021/03/06 02:22:54;;;;;;;4.33;2.10;;;0.70;78.80;;;;;;6275603;22;20014;-85
2021/03/06 02:25:53;;;;;;;6.57;2.10;;;0.60;78.90;;;;;;6274113;22;20007;-86
2021/03/06 02:28:54;;;;;;;3.65;1.75;;;0.60;78.90;;;;;;6273342;22;20458;-86
2021/03/06 02:31:43;;;;;;;5.13;2.40;;;0.60;79.00;;;;;;6274752;22;20320;-86
2021/03/06 02:34:26;;;;;;;8.40;2.50;;;0.60;79.10;;;;;;6252601;22;20242;-85
2021/03/06 02:37:00;;;;;;;4.57;1.98;;;0.50;79.20;;;;;;6274466;22;20011;-85
2021/03/06 02:39:38;;;;;;;5.85;1.90;;;0.50;79.30;;;;;;6273830;22;20069;-85
2021/03/06 02:42:19;;;;;;;7.87;2.20;;;0.50;79.50;;;;;;6274806;22;20004;-86
2021/03/06 02:44:51;;;;;;;6.03;2.20;;;0.50;79.60;;;;;;6275356;22;20003;-86
2021/03/06 02:47:35;;;;;;;;;;;0.50;79.70;;;;;;6275051;22;20322;-86
2021/03/06 02:50:19;;;;;;;4.22;2.20;;;0.40;79.70;;;;;;6273546;22;19899;-86
2021/03/06 02:52:50;;;;;;;6.90;2.83;;;0.40;79.70;;;;;;6273776;22;20114;-86
2021/03/06 02:55:33;;;;;;;5.20;2.23;;;0.40;79.80;;;;;;6273721;22;19995;-86
2021/03/06 02:58:38;;;;;;;5.07;2.33;;;0.40;79.80;;;;;;6276043;22;20448;-86
2021/03/06 03:01:22;;;;;;;6.10;2.45;;;0.30;79.90;;;;;;6274944;22;20440;-86
2021/03/06 03:04:27;;;;;;;;;;;;;;;;;;;;;
2021/03/06 03:07:18;;;;;;;;;;;;;;;;;;;;;
2021/03/06 03:09:53;;;;;;;6.53;2.40;;;0.30;80.00;;;;;;6275146;22;20082;-86
2021/03/06 03:12:23;;;;;;;5.00;2.10;;;0.30;80.00;;;;;;6275243;22;20004;-86
2021/03/06 03:15:13;;;;;;;5.33;2.47;;;0.20;80.00;;;;;;6275217;22;20016;-86
2021/03/06 03:17:59;;;;;;;;;;;;;;;;;;;;;
2021/03/06 03:20:57;;;;;;;7.47;2.60;;;0.20;80.00;;;;;;6279341;22;20071;-86
2021/03/06 03:23:38;;;;;;;4.77;2.23;;;0.20;80.10;;;;;;6276299;22;20018;-86
2021/03/06 03:26:11;;;;;;;5.32;2.53;;;0.20;80.10;;;;;;6274957;22;20384;-85
2021/03/06 03:28:44;;;;;;;7.60;2.30;;;0.20;80.20;;;;;;6274839;22;20098;-85
2021/03/06 03:31:28;;;;;;;;;;;;;;;;;;;;;
2021/03/06 03:34:02;;;;;;;7.63;2.80;;;0.10;80.30;;;;;;6277135;22;20080;-86
2021/03/06 03:36:31;;;;;;;7.97;2.50;;;0.10;80.40;;;;;;6276202;22;20007;-85
2021/03/06 03:39:22;;;;;;;3.27;1.80;;;0.10;80.40;;;;;;6249696;22;20012;-86
2021/03/06 03:41:53;;;;;;;5.28;2.40;;;0.10;80.60;;;;;;6274625;22;20026;-85
2021/03/06 03:44:34;;;;;;;5.72;2.10;;;0.10;80.60;;;;;;6274384;22;20007;-85
2021/03/06 03:47:10;;;;;;;4.57;2.00;;;0.10;80.70;;;;;;6251452;22;20007;-86
2021/03/06 03:49:48;;;;;;;6.93;2.60;;;0.10;80.90;;;;;;6273192;22;20000;-86
2021/03/06 03:52:15;;;;;;;4.67;2.43;;;0.10;81.00;;;;;;6274027;22;20507;-86
2021/03/06 03:54:57;;;;;;;6.40;2.53;;;0.10;81.10;;;;;;6275506;22;20702;-86
2021/03/06 03:57:40;;;;;;;;;;;;;;;;;;;;;
2021/03/06 04:00:20;;;;;;;4.43;2.50;;;0.00;81.20;;;;;;6276523;22;20083;-86
2021/03/06 04:02:51;;;;;;;6.93;2.70;;;0.00;81.20;;;;;;6275572;22;20426;-86
2021/03/06 04:05:35;;;;;;;;;;;;;;;;;;;;;
2021/03/06 04:08:02;;;;;;;4.57;2.10;;;-0.10;81.20;;;;;;6279478;22;20489;-86
2021/03/06 04:10:28;;;;;;;5.67;2.60;;;-0.10;81.20;;;;;;6278928;22;20042;-86
2021/03/06 04:13:10;;;;;;;6.20;2.53;;;-0.10;81.30;;;;;;6277010;22;20045;-85
2021/03/06 04:15:40;;;;;;;6.57;2.37;;;-0.10;81.30;;;;;;6277680;22;20008;-86
2021/03/06 04:18:13;;;;;;;7.35;2.25;;;-0.10;81.40;;;;;;6249898;22;20012;-86
2021/03/06 04:20:41;;;;;;;8.37;3.17;;;-0.10;81.50;;;;;;6276395;22;20038;-86
2021/03/06 04:23:10;;;;;;;7.53;2.97;;;-0.20;81.50;;;;;;6277181;22;20023;-86
2021/03/06 04:25:38;;;;;;;6.03;2.63;;;-0.10;81.60;;;;;;6275792;22;20049;-85
2021/03/06 04:28:04;;;;;;;6.83;2.83;;;-0.20;81.60;;;;;;6276527;22;19999;-86
2021/03/06 04:30:30;;;;;;;6.27;2.60;;;-0.20;81.60;;;;;;6250581;22;20007;-85
2021/03/06 04:33:06;;;;;;;5.53;2.70;;;-0.20;81.60;;;;;;6275376;22;20003;-86
2021/03/06 04:35:42;;;;;;;5.77;2.50;;;-0.20;81.60;;;;;;6276688;22;20034;-85
2021/03/06 04:38:19;;;;;;;7.07;2.90;;;-0.20;81.60;;;;;;6253135;22;20007;-85
2021/03/06 04:40:55;;;;;;;4.03;2.30;;;-0.20;81.60;;;;;;6275879;22;20010;-85
2021/03/06 04:43:31;;;;;;;10.33;2.60;;;-0.30;81.60;;;;;;6278221;22;20003;-85
2021/03/06 04:46:05;;;;;;;4.50;2.27;;;-0.30;81.70;;;;;;6275150;22;20011;-85
2021/03/06 04:48:50;;;;;;;4.50;2.43;;;-0.30;81.70;;;;;;6276281;22;20054;-86
2021/03/06 04:51:21;;;;;;;5.70;2.50;;;-0.30;81.80;;;;;;6276643;22;20478;-86
2021/03/06 04:53:57;;;;;;;;;;;;;;;;;;;;;
2021/03/06 04:56:23;;;;;;;5.23;2.67;;;-0.30;81.90;;;;;;6277431;22;20389;-85
2021/03/06 04:59:00;;;;;;;5.20;2.60;;;-0.30;82.10;;;;;;6275802;22;20011;-86
2021/03/06 05:01:47;;;;;;;5.93;2.47;;;-0.30;82.10;;;;;;6251037;22;20457;-85
2021/03/06 05:04:16;;;;;;;5.83;2.57;;;-0.30;82.00;;;;;;6275080;22;20066;-85
2021/03/06 05:06:47;;;;;;;7.70;2.83;;;-0.30;82.00;;;;;;6274365;22;20008;-85
2021/03/06 05:09:16;;;;;;;6.03;2.28;;;-0.30;82.00;;;;;;6274916;22;20000;-85
2021/03/06 05:11:47;;;;;;;6.73;2.60;;;-0.30;82.00;;;;;;6275053;22;20421;-86
2021/03/06 05:14:15;;;;;;;4.82;2.45;;;-0.30;81.90;;;;;;6248147;22;20019;-86
2021/03/06 05:16:50;;;;;;;4.10;2.30;;;-0.30;81.90;;;;;;6248888;22;20008;-85
2021/03/06 05:19:16;;;;;;;5.80;2.20;;;-0.30;81.90;;;;;;6274340;22;20023;-85
2021/03/06 05:21:52;;;;;;;6.63;3.00;;;-0.40;81.80;;;;;;6273718;22;20012;-85
2021/03/06 05:24:38;;;;;;;;;;;;;;;;;;;;;
2021/03/06 05:27:34;;;;;;;7.13;2.30;;;-0.40;81.80;;;;;;6274641;22;20083;-86
2021/03/06 05:30:02;;;;;;;8.07;2.63;;;-0.40;81.90;;;;;;6274972;22;20083;-85
2021/03/06 05:32:30;;;;;;;8.77;2.90;;;-0.40;81.90;;;;;;6274407;22;20034;-85
2021/03/06 05:35:01;;;;;;;5.77;2.50;;;-0.40;81.80;;;;;;6249919;22;20413;-85
2021/03/06 05:37:41;;;;;;;6.35;2.47;;;-0.50;81.80;;;;;;6247955;22;20302;-85
2021/03/06 05:42:59;;;;;;;4.20;2.60;;;-0.50;81.90;;;;;;6274767;22;20019;-85
2021/03/06 05:45:28;;;;;;;4.50;2.50;;;-0.50;81.90;;;;;;6275359;22;20087;-85
2021/03/06 05:48:04;;;;;;;8.13;2.57;;;-0.50;81.90;;;;;;6275582;22;20031;-85
2021/03/06 05:50:42;;;;;;;3.27;2.00;;;-0.50;81.90;;;;;;6276444;22;20000;-85
2021/03/06 05:53:19;;;;;;;6.03;2.60;;;-0.60;81.90;;;;;;6275889;22;20074;-85
2021/03/06 05:56:16;;;;;;;4.80;2.70;;;-0.50;81.90;;;;;;6250352;22;20003;-85
2021/03/06 05:58:47;;;;;;;7.47;2.90;;;-0.50;81.90;;;;;;6275360;22;20329;-85
2021/03/06 06:01:27;;;;;;;3.87;2.50;;;-0.50;81.90;;;;;;6276509;22;20022;-85
2021/03/06 06:03:56;;;;;;;6.50;2.80;;;-0.50;82.00;;;;;;6274923;22;20099;-85
2021/03/06 06:06:22;;;;;;;5.57;2.83;;;-0.60;81.90;;;;;;6276384;22;19999;-85
2021/03/06 06:08:55;;;;;;;4.33;2.47;;;-0.60;81.90;;;;;;6250928;22;20012;-85
2021/03/06 06:11:23;;;;;;;4.13;2.60;;;-0.60;81.90;;;;;;6277501;22;19996;-85
2021/03/06 06:14:09;;;;;;;7.13;2.90;;;-0.60;81.80;;;;;;6275381;22;20023;-85
2021/03/06 06:16:43;;;;;;;8.77;2.90;;;-0.60;81.90;;;;;;6276910;22;20004;-85
2021/03/06 06:19:30;;;;;;;6.93;2.50;;;-0.60;81.90;;;;;;6251491;22;20007;-85
2021/03/06 06:21:58;;;;;;;6.17;2.37;;;-0.70;81.80;;;;;;6273650;22;20127;-85
2021/03/06 06:24:33;;;;;;;4.67;2.53;;;-0.70;81.80;;;;;;6276109;22;20004;-85
2021/03/06 06:27:02;;;;;;;5.67;2.70;;;-0.70;81.90;;;;;;6273998;22;20007;-85
2021/03/06 06:30:00;;;;;;;8.00;3.10;;;-0.70;82.00;;;;;;6275382;22;20373;-85
2021/03/06 06:32:49;;;;;;;7.67;2.67;;;-0.70;82.10;;;;;;6261261;22;20000;-85
2021/03/06 06:35:16;;;;;;;4.57;2.57;;;-0.70;82.40;;;;;;6275115;22;20014;-84
2021/03/06 06:41:09;;;;;;;5.27;2.40;;;-0.70;82.30;;;;;;6141664;23;20084;-85
2021/03/06 06:43:35;;;;;;;5.90;2.60;;;-0.70;82.40;;;;;;6270380;22;20034;-85
2021/03/06 06:46:01;;;;;;;6.07;2.80;;;-0.70;82.20;;;;;;6277357;22;20417;-85
2021/03/06 06:48:32;;;;;;;7.03;2.63;;;-0.70;82.30;;;;;;6276025;22;20004;-85
2021/03/06 06:51:10;;;;;;;6.07;3.13;;;-0.70;82.30;;;;;;6277424;22;20413;-85
2021/03/06 06:53:38;;;;;;;5.47;2.80;;;-0.70;82.40;;;;;;6275427;22;20329;-85
2021/03/06 06:56:27;;;;;;;5.77;2.93;;;-0.60;82.50;;;;;;6274368;22;20082;-85
2021/03/06 06:59:17;;;;;;;8.57;3.23;;;-0.60;82.60;;;;;;6247921;22;20008;-85
2021/03/06 07:01:48;;;;;;;9.60;3.20;;;-0.60;82.60;;;;;;6275486;22;20000;-84
2021/03/06 07:04:20;;;;;;;7.68;3.22;;;-0.60;82.70;;;;;;6277465;22;20000;-84
2021/03/06 07:07:00;;;;;;;8.63;3.35;;;-0.60;82.80;;;;;;6278131;22;20026;-84
2021/03/06 07:09:36;;;;;;;6.57;3.30;;;-0.60;82.90;;;;;;6279253;22;20002;-85
2021/03/06 07:12:32;;;;;;;6.83;3.40;;;-0.50;83.00;;;;;;6278650;22;20010;-84
2021/03/06 07:15:03;;;;;;;7.03;2.90;;;-0.50;83.10;;;;;;6256134;22;20066;-85
2021/03/06 07:17:56;;;;;;;8.38;3.78;;;-0.40;83.20;;;;;;6282954;22;20058;-85
2021/03/06 07:20:29;;;;;;;7.03;3.47;;;-0.40;83.30;;;;;;6283579;22;20000;-84
2021/03/06 07:23:21;;;;;;;5.93;3.10;;;-0.40;83.40;;;;;;6282153;22;20016;-85
2021/03/06 07:25:54;;;;;;;5.97;3.43;;;-0.30;83.40;;;;;;6263017;22;20079;-85
2021/03/06 07:28:25;;;;;;;5.47;3.27;;;-0.30;83.50;;;;;;6276166;22;19995;-85
2021/03/06 07:35:28;;;;;;;;;;;;;;;;;;;;;
2021/03/06 07:38:46;;;;;;;;;;;;;;;;;;;;;
2021/03/06 07:48:52;;;;;;;;;;;;;;;;;;;;;
2021/03/06 07:55:30;;;;;;;;;;;;;;;;;;;;;
2021/03/06 08:31:07;;;;;;;7.13;2.60;;;1.30;85.00;;;;;;5911150;24;20048;-91
2021/03/06 08:44:40;;;;;;;;;;;;;;;;;;;;;
2021/03/06 08:58:44;;;;;;;;;;;;;;;;;;;;;
2021/03/06 09:20:41;;;;;;;;;;;;;;;;;;;;;
2021/03/06 09:35:07;;;;;;;;;;;;;;;;;;;;;
2021/03/06 09:48:03;;;;;;;;;;;;;;;;;;;;;
2021/03/06 09:51:29;;;;;;;;;;;;;;;;;;;;;
2021/03/06 10:02:35;;;;;;;;;;;;;;;;;;;;;
2021/03/06 10:05:56;;;;;;;5.57;3.08;;;4.40;82.40;;;;;;6095415;23;20097;-93
2021/03/06 10:16:33;;;;;;;;;;;;;;;;;;;;;
2021/03/06 10:20:34;;;;;;;;;;;;;;;;;;;;;
2021/03/06 10:55:22;;;;;;;;;;;;;;;;;;;;;
2021/03/06 11:06:06;;;;;;;;;;;;;;;;;;;;;
2021/03/06 11:09:17;;;;;;;;;;;;;;;;;;;;;
2021/03/06 11:12:22;;;;;;;;;;;;;;;;;;;;;
2021/03/06 11:16:08;;;;;;;;;;;;;;;;;;;;;
2021/03/06 11:19:33;;;;;;;3.50;1.05;;;5.10;68.80;;;;;;6004893;23;20046;-89
2021/03/06 11:22:38;;;;;;;;;;;;;;;;;;;;;
2021/03/06 11:25:25;;;;;;;2.38;0.77;;;5.10;68.40;;;;;;5955885;24;20095;-91
2021/03/06 11:37:39;;;;;;;4.00;1.00;;;5.40;66.90;;;;;;6167332;23;20014;-89
2021/03/06 11:47:30;;;;;;;;;;;;;;;;;;;;;
2021/03/06 11:50:29;;;;;;;;;;;;;;;;;;;;;
2021/03/06 11:53:08;;;;;;;2.45;0.77;;;5.60;65.00;;;;;;6114146;23;20421;-88
2021/03/06 11:56:08;;;;;;;3.40;0.98;;;5.70;64.50;;;;;;6263204;22;20380;-88
2021/03/06 11:58:39;;;;;;;5.95;1.10;;;5.70;64.90;;;;;;6271705;22;20004;-86
2021/03/06 12:04:11;;;;;;;;;;;;;;;;;;;;;
2021/03/06 12:07:08;;;;;;;1.48;0.73;;;5.90;64.50;;;;;;6271645;22;20481;-89
2021/03/06 12:09:50;;;;;;;3.30;1.50;;;5.90;63.80;;;;;;6236655;22;20014;-86
2021/03/06 12:12:54;;;;;;;3.45;0.90;;;5.90;63.30;;;;;;6272476;22;20494;-88
2021/03/06 12:15:26;;;;;;;2.05;0.80;;;5.90;63.00;;;;;;6271650;22;20349;-89
2021/03/06 12:21:24;;;;;;;;;;;;;;;;;;;;;
2021/03/06 12:24:02;;;;;;;2.90;0.70;;;6.00;63.00;;;;;;6273435;22;20126;-89
2021/03/06 12:26:42;;;;;;;2.90;0.80;;;6.10;62.70;;;;;;6275636;22;20006;-88
2021/03/06 12:29:44;;;;;;;;;;;;;;;;;;;;;
2021/03/06 12:32:24;;;;;;;;;;;6.10;62.30;;;;;;6272840;22;20014;-89
2021/03/06 12:38:06;;;;;;;1.92;0.90;;;6.20;61.60;;;;;;6259749;22;20011;-89
2021/03/06 12:43:52;;;;;;;1.20;0.80;;;6.30;61.50;;;;;;6243697;22;20097;-88
2021/03/06 12:47:09;;;;;;;2.50;0.80;;;6.30;61.90;;;;;;6276324;22;20000;-87
2021/03/06 12:49:44;;;;;;;3.22;1.52;;;6.40;62.10;;;;;;6276215;22;20091;-88
2021/03/06 12:52:41;;;;;;;;;;;;;;;;;;;;;
2021/03/06 12:55:32;;;;;;;2.53;0.85;;;6.50;61.50;;;;;;6275700;22;20079;-87
2021/03/06 12:58:29;;;;;;;1.95;0.90;;;6.50;61.70;;;;;;6276962;22;20143;-90
2021/03/06 13:01:15;;;;;;;;;;;;;;;;;;;;;
2021/03/06 13:07:39;;;;;;;;;;;;;;;;;;;;;
2021/03/06 13:10:36;;;;;;;;;;;;;;;;;;;;;
2021/03/06 13:13:34;;;;;;;;;;;;;;;;;;;;;
2021/03/06 13:22:46;;;;;;;;;;;;;;;;;;;;;
2021/03/06 13:25:56;;;;;;;1.75;0.65;;;7.20;62.20;;;;;;6275322;22;20075;-89
2021/03/06 13:28:36;;;;;;;1.40;0.70;;;7.20;61.30;;;;;;6275837;22;20010;-89
2021/03/06 13:31:30;;;;;;;;;;;;;;;;;;;;;
2021/03/06 13:38:05;;;;;;;1.65;0.85;;;7.10;58.90;;;;;;6256009;22;20008;-89
2021/03/06 13:40:37;;;;;;;1.70;0.80;;;7.10;57.80;;;;;;6251376;22;20019;-89
2021/03/06 13:43:09;;;;;;;2.53;1.25;;;7.00;58.20;;;;;;6275596;22;20011;-90
2021/03/06 13:46:38;;;;;;;1.15;0.70;;;7.10;58.90;;;;;;6275022;22;20053;-89
2021/03/06 13:49:57;;;;;;;1.20;0.82;;;7.10;58.90;;;;;;6271720;22;20023;-89
2021/03/06 13:52:53;;;;;;;1.55;1.00;;;7.10;58.30;;;;;;6274663;22;20065;-88
2021/03/06 13:55:23;;;;;;;1.60;0.98;;;7.10;58.40;;;;;;6274843;22;20415;-89
2021/03/06 14:01:08;;;;;;;1.60;0.88;;;7.20;57.90;;;;;;6253746;22;20004;-89
2021/03/06 14:04:30;;;;;;;2.42;0.90;;;7.20;57.80;;;;;;6275074;22;20027;-88
2021/03/06 14:07:26;;;;;;;3.42;0.93;;;7.20;58.10;;;;;;6273680;22;20445;-89
2021/03/06 14:10:29;;;;;;;1.42;0.80;;;7.10;57.00;;;;;;6273089;22;20000;-89
2021/03/06 14:13:46;;;;;;;;;;;;;;;;;;;;;
2021/03/06 14:16:32;;;;;;;;;;;;;;;;;;;;;
2021/03/06 14:19:46;;;;;;;;;;;;;;;;;;;;;
2021/03/06 14:22:56;;;;;;;;;;;;;;;;;;;;;
2021/03/06 14:26:06;;;;;;;;;;;;;;;;;;;;;
2021/03/06 14:32:14;;;;;;;1.85;1.20;;;7.00;56.50;;;;;;6269761;22;20014;-88
2021/03/06 14:35:24;;;;;;;;;;;;;;;;;;;;;
2021/03/06 14:41:44;;;;;;;;;;;;;;;;;;;;;
2021/03/06 14:44:40;;;;;;;;;;;;;;;;;;;;;
2021/03/06 14:54:07;;;;;;;;;;;;;;;;;;;;;
2021/03/06 14:57:18;;;;;;;;;;;;;;;;;;;;;
2021/03/06 15:02:49;;;;;;;2.78;1.73;;;7.20;57.00;;;;;;6269233;22;20012;-90
2021/03/06 15:09:10;;;;;;;3.28;1.23;;;7.20;57.10;;;;;;6222350;22;20007;-89
2021/03/06 15:19:16;;;;;;;1.67;0.90;;;7.20;57.50;;;;;;6206340;23;20203;-89
2021/03/06 15:22:03;;;;;;;;;;;;;;;;;;;;;
2021/03/06 15:29:04;;;;;;;;;;;;;;;;;;;;;
2021/03/06 15:32:09;;;;;;;;;;;7.10;56.70;;;;;;6178923;23;20084;-89
2021/03/06 15:35:24;;;;;;;4.68;2.42;;;7.00;56.30;;;;;;6195415;23;19900;-88
2021/03/06 15:38:34;;;;;;;;;;;;;;;;;;;;;
2021/03/06 15:47:48;;;;;;;;;;;;;;;;;;;;;
2021/03/06 15:50:54;;;;;;;1.20;1.05;;;7.10;57.80;;;;;;6195107;23;20458;-91
2021/03/06 15:54:05;;;;;;;2.58;1.20;;;7.20;57.90;;;;;;6165979;23;20008;-90
2021/03/06 16:01:41;;;;;;;;;;;;;;;;;;;;;
2021/03/06 16:45:20;;;;;;;3.67;2.10;;;6.60;58.00;;;;;;6148739;23;20112;-88
2021/03/06 16:54:47;;;;;;;9.07;3.92;;;6.40;57.80;;;;;;6183118;23;20009;-88
2021/03/06 16:57:50;;;;;;;3.78;2.10;;;6.40;57.60;;;;;;6189503;23;20437;-87
2021/03/06 17:00:47;;;;;;;2.38;1.63;;;6.30;57.80;;;;;;6189208;23;20083;-87
2021/03/06 17:03:48;;;;;;;;;;;;;;;;;;;;;
2021/03/06 17:06:42;;;;;;;3.97;1.25;;;6.20;58.20;;;;;;6191677;23;20521;-89
2021/03/06 17:09:36;;;;;;;3.95;2.38;;;6.20;58.40;;;;;;6188894;23;20043;-89
2021/03/06 17:15:48;;;;;;;4.78;3.13;;;6.10;59.30;;;;;;6191268;23;20088;-88
2021/03/06 17:21:50;;;;;;;;;;;;;;;;;;;;;
2021/03/06 17:24:54;;;;;;;2.65;1.60;;;5.90;60.30;;;;;;6243970;23;20075;-88
2021/03/06 17:28:24;;;;;;;;;;;;;;;;;;;;;
2021/03/06 17:34:48;;;;;;;;;;;;;;;;;;;;;
2021/03/06 17:48:38;;;;;;;;;;;;;;;;;;;;;
2021/03/06 18:02:58;;;;;;;;;;;;;;;;;;;;;
2021/03/06 18:06:03;;;;;;;;;;;;;;;;;;;;;
2021/03/06 18:08:52;;;;;;;2.30;1.50;;;5.30;63.10;;;;;;6060573;23;20085;-87
2021/03/06 18:12:18;;;;;;;2.38;1.70;;;5.20;63.10;;;;;;6015328;23;20018;-87
2021/03/06 18:15:23;;;;;;;;;;;;;;;;;;;;;
2021/03/06 18:25:36;;;;;;;3.72;2.10;;;5.00;64.90;;;;;;5927264;24;20481;-85
2021/03/06 18:28:05;;;;;;;6.15;2.80;;;4.80;65.20;;;;;;5947709;24;20013;-83
2021/03/06 18:30:41;;;;;;;7.18;3.10;;;4.70;65.50;;;;;;5924047;24;20013;-84
2021/03/06 18:33:12;;;;;;;7.15;3.70;;;4.70;65.80;;;;;;6163941;22;20012;-83
2021/03/06 18:35:38;;;;;;;6.05;3.70;;;4.60;66.10;;;;;;6239408;23;20009;-81
2021/03/06 18:38:04;;;;;;;7.53;3.88;;;4.50;66.30;;;;;;6214737;23;20012;-83
2021/03/06 18:40:45;;;;;;;5.85;3.17;;;4.50;66.50;;;;;;6241464;23;20071;-83
2021/03/06 18:43:19;;;;;;;7.32;3.75;;;4.40;66.70;;;;;;6216818;23;20016;-84
2021/03/06 18:46:15;;;;;;;;;;;;;;;;;;;;;
2021/03/06 18:48:46;;;;;;;5.95;3.33;;;4.30;67.30;;;;;;6241496;23;20086;-83
2021/03/06 18:51:20;;;;;;;5.20;3.65;;;4.20;67.40;;;;;;6241858;23;20050;-83
2021/03/06 18:53:53;;;;;;;6.82;3.47;;;4.10;67.40;;;;;;6215860;23;20015;-83
2021/03/06 18:56:22;;;;;;;9.15;4.13;;;4.10;67.70;;;;;;6240996;23;20008;-82
2021/03/06 18:58:59;;;;;;;8.20;4.40;;;4.00;67.90;;;;;;6241404;22;20057;-83
2021/03/06 19:01:27;;;;;;;10.13;4.82;;;3.90;68.10;;;;;;6216009;23;20069;-83
2021/03/06 19:03:55;;;;;;;9.82;5.20;;;3.90;68.20;;;;;;6239183;23;20016;-82
2021/03/06 19:06:40;;;;;;;;;;;;;;;;;;;;;
2021/03/06 19:09:08;;;;;;;7.72;4.40;;;3.80;69.00;;;;;;6243390;23;20461;-82
2021/03/06 19:11:41;;;;;;;6.82;4.00;;;3.80;68.60;;;;;;6241991;23;20349;-82
2021/03/06 19:14:23;;;;;;;11.95;4.68;;;3.80;68.70;;;;;;6241670;23;20035;-83
2021/03/06 19:16:57;;;;;;;9.65;4.97;;;3.80;68.80;;;;;;6217510;23;20015;-82
2021/03/06 19:19:44;;;;;;;7.82;4.70;;;3.80;69.00;;;;;;6191653;23;20092;-83
2021/03/06 19:22:37;;;;;;;7.05;4.20;;;3.80;69.20;;;;;;6220334;23;20005;-83
2021/03/06 19:25:13;;;;;;;7.75;4.40;;;3.80;70.00;;;;;;6216089;23;20012;-83
2021/03/06 19:27:43;;;;;;;6.15;3.97;;;3.80;69.70;;;;;;6242771;22;20039;-83
2021/03/06 19:30:13;;;;;;;10.27;5.28;;;3.80;70.40;;;;;;6243623;23;20004;-83
2021/03/06 19:32:48;;;;;;;8.80;5.30;;;3.70;69.90;;;;;;6216228;23;20011;-83
2021/03/06 19:35:19;;;;;;;8.65;5.07;;;3.80;70.20;;;;;;6241139;23;20004;-82
2021/03/06 19:37:46;;;;;;;9.85;4.63;;;3.70;70.20;;;;;;6240973;23;20014;-82
2021/03/06 19:40:13;;;;;;;7.60;4.75;;;3.70;70.50;;;;;;6242203;23;20008;-81
2021/03/06 19:42:39;;;;;;;6.15;4.15;;;3.70;70.70;;;;;;6241851;23;20374;-82
2021/03/06 19:45:09;;;;;;;7.85;3.97;;;3.70;70.90;;;;;;6216617;23;20012;-82
2021/03/06 19:47:35;;;;;;;6.88;3.88;;;3.70;71.20;;;;;;6241552;23;20059;-82
2021/03/06 19:50:01;;;;;;;6.55;3.97;;;3.70;71.40;;;;;;6242065;23;20354;-82
2021/03/06 19:52:27;;;;;;;4.88;3.45;;;3.70;71.80;;;;;;6267143;22;20004;-82
2021/03/06 19:54:56;;;;;;;6.50;3.83;;;3.70;72.10;;;;;;6242325;23;20054;-82
2021/03/06 19:57:22;;;;;;;7.38;3.53;;;3.70;72.40;;;;;;6266502;22;20004;-83
2021/03/06 19:59:57;;;;;;;7.03;3.78;;;3.70;72.60;;;;;;6242004;23;20008;-81
2021/03/06 20:02:26;;;;;;;6.70;3.08;;;3.70;72.90;;;;;;6241512;23;20054;-81
2021/03/06 20:04:55;;;;;;;5.30;3.05;;;3.70;73.00;;;;;;6216887;23;20012;-81
2021/03/06 20:07:21;;;;;;;5.95;3.72;;;3.70;73.30;;;;;;6242141;23;20007;-84
2021/03/06 20:09:47;;;;;;;5.60;3.50;;;3.70;73.50;;;;;;6242061;23;20024;-82
2021/03/06 20:12:20;;;;;;;7.00;3.63;;;3.60;73.60;;;;;;6242151;23;20066;-82
2021/03/06 20:14:52;;;;;;;6.47;3.30;;;3.70;73.70;;;;;;6240567;23;20426;-83
2021/03/06 20:17:36;;;;;;;;;;;;;;;;;;;;;
2021/03/06 20:20:05;;;;;;;5.28;3.35;;;3.60;74.20;;;;;;6242527;23;20392;-81
2021/03/06 20:22:33;;;;;;;6.05;3.20;;;3.50;74.40;;;;;;6215857;23;20012;-82
2021/03/06 20:25:04;;;;;;;6.68;3.33;;;3.50;74.60;;;;;;6240085;22;20032;-81
2021/03/06 20:27:39;;;;;;;5.88;3.55;;;3.50;74.70;;;;;;6239675;23;20334;-81
2021/03/06 20:30:12;;;;;;;6.30;3.42;;;3.50;75.00;;;;;;6240883;23;19996;-81
2021/03/06 20:32:49;;;;;;;5.47;3.58;;;3.50;75.10;;;;;;6240869;23;20095;-81
2021/03/06 20:35:15;;;;;;;4.95;3.45;;;3.40;75.20;;;;;;6240816;23;20004;-82
2021/03/06 20:37:44;;;;;;;6.22;3.33;;;3.40;75.40;;;;;;6241215;23;20027;-82
2021/03/06 20:40:12;;;;;;;6.60;3.33;;;3.40;75.60;;;;;;6241547;23;20449;-81
2021/03/06 20:42:38;;;;;;;6.00;3.28;;;3.40;75.80;;;;;;6240007;23;20044;-81
2021/03/06 20:45:10;;;;;;;6.00;2.90;;;3.40;76.00;;;;;;6243178;22;20327;-81
2021/03/06 20:47:41;;;;;;;;;;;3.30;76.20;;;;;;6243384;23;20054;-82
2021/03/06 20:50:11;;;;;;;5.55;3.55;;;3.30;76.50;;;;;;6268636;22;19919;-81
2021/03/06 20:52:48;;;;;;;5.82;2.90;;;3.20;76.60;;;;;;6244655;22;20079;-83
2021/03/06 20:55:14;;;;;;;7.10;3.08;;;3.20;76.80;;;;;;6245303;22;20430;-82
2021/03/06 20:57:40;;;;;;;6.50;2.92;;;3.20;76.90;;;;;;6243315;23;20004;-82
2021/03/06 21:00:08;;;;;;;7.00;3.88;;;3.10;77.00;;;;;;6242790;23;20001;-82
2021/03/06 21:02:36;;;;;;;4.28;3.10;;;3.20;77.80;;;;;;6242776;23;20004;-82
2021/03/06 21:05:08;;;;;;;6.47;3.50;;;3.10;77.30;;;;;;6242839;23;20301;-83
2021/03/06 21:07:37;;;;;;;6.00;3.47;;;3.10;77.50;;;;;;6244020;23;20022;-81
2021/03/06 21:10:09;;;;;;;4.30;2.80;;;3.10;77.70;;;;;;6241477;23;20000;-82
2021/03/06 21:12:35;;;;;;;6.63;3.40;;;3.10;77.80;;;;;;6215729;23;20069;-82
2021/03/06 21:15:01;;;;;;;7.15;3.55;;;3.00;78.00;;;;;;6267816;22;20420;-82
2021/03/06 21:17:40;;;;;;;;;;;;;;;;;;;;;
2021/03/06 21:20:14;;;;;;;4.80;3.08;;;2.90;78.30;;;;;;6244461;23;20087;-82
2021/03/06 21:22:45;;;;;;;5.70;3.90;;;2.90;78.50;;;;;;6267321;22;20008;-82
2021/03/06 21:25:11;;;;;;;8.30;3.55;;;2.90;78.60;;;;;;6216036;23;20016;-82
2021/03/06 21:27:39;;;;;;;5.53;3.60;;;2.80;78.60;;;;;;6242556;23;20433;-82
2021/03/06 21:30:06;;;;;;;4.78;3.58;;;2.80;78.70;;;;;;6219866;23;20095;-84
2021/03/06 21:32:33;;;;;;;6.80;4.15;;;2.80;78.90;;;;;;6242430;23;20004;-82
2021/03/06 21:35:01;;;;;;;5.57;3.78;;;2.80;79.10;;;;;;6243190;23;20011;-83
2021/03/06 21:37:29;;;;;;;7.85;4.03;;;2.70;79.20;;;;;;6245559;23;20003;-82